Check out our new PWSWeather beta!
PWSweather.com
Personal Weather Stations
Station Observations
SOVERATOMETEO
Calabria, SoveratoIT 88068

CalabriaSoveratoIT 88068

Lat: 38.68588, Lon: 16.553582

Elevation: 20

Station Type: PCE-FWS 20

Latest ConditionsUpdated 3:40:02 AM GMT+01:01 Friday, Feb 28, 2020
Currently Today's Max Today's Min Today's Average
Temperature 55.2°F12.9°C 55.2°F12.9°C 54.3°F12.4°C 54.7°F12.6°C
Dew Point 39.8°F4.3°C 40.4°F4.7°C 33.0°F0.6°C 37.7°F3.2°C
Winds 11.0 mph WSW17.7 kmh WSW 15.9 mph -25.6 kmh - - 6.9 mph 11.1 kmh
Wind Gusts 16.8 mph27.0 kmh 20.6 mph33.2 kmh - -
Humidity 56% 58% 44% 53%
Pressure 29.89 in1012.2 mb 29.97 in1014.9 mb 29.89 in1012.2 mb -
Hour Temp Dew Point Humidity Winds Wind Gusts Pressure Precip Precip Rate Daily Precip Total
03:40 AM 55.2°F12.9°C 39.8°F4.3°C 56% 11.0 mph WSW17.7 kmh WSW 16.8 mph27.0 kmh 29.89 in1012.2 mb - 0.00 in0.0 mm 0.00 in0.0 mm
03:30 AM 54.9°F12.7°C 40.4°F4.7°C 58% 12.2 mph W19.6 kmh W 15.2 mph24.5 kmh 29.90 in1012.5 mb - 0.00 in0.0 mm 0.00 in0.0 mm
03:20 AM 54.9°F12.7°C 40.4°F4.7°C 58% 10.3 mph WSW16.6 kmh WSW 15.9 mph25.6 kmh 29.91 in1012.9 mb - 0.00 in0.0 mm 0.00 in0.0 mm
03:10 AM 55.2°F12.9°C 40.2°F4.6°C 57% 15.9 mph WSW25.6 kmh WSW 20.6 mph33.2 kmh 29.91 in1012.9 mb - 0.00 in0.0 mm 0.00 in0.0 mm
03:00 AM 54.6°F12.6°C 39.7°F4.3°C 57% 8.7 mph W14.0 kmh W 13.7 mph22.0 kmh 29.91 in1012.9 mb - 0.00 in0.0 mm 0.00 in0.0 mm
02:50 AM 54.5°F12.5°C 39.1°F3.9°C 56% 8.3 mph W13.4 kmh W 11.4 mph18.3 kmh 29.92 in1013.2 mb - 0.00 in0.0 mm 0.00 in0.0 mm
02:40 AM 54.5°F12.5°C 39.1°F3.9°C 56% 5.8 mph W9.3 kmh W 7.6 mph12.2 kmh 29.92 in1013.2 mb - 0.00 in0.0 mm 0.00 in0.0 mm
02:30 AM 54.5°F12.5°C 40.0°F4.4°C 58% 6.2 mph NW10.0 kmh NW 8.3 mph13.4 kmh 29.93 in1013.5 mb - 0.00 in0.0 mm 0.00 in0.0 mm
02:20 AM 54.7°F12.6°C 39.7°F4.3°C 57% 4.1 mph WSW6.6 kmh WSW 8.3 mph13.4 kmh 29.94 in1013.9 mb - 0.00 in0.0 mm 0.00 in0.0 mm
02:10 AM 54.5°F12.5°C 39.1°F3.9°C 56% 10.6 mph W17.1 kmh W 13.0 mph20.9 kmh 29.94 in1013.9 mb - 0.00 in0.0 mm 0.00 in0.0 mm
02:00 AM 54.5°F12.5°C 38.7°F3.7°C 55% 5.8 mph WSW9.3 kmh WSW 8.3 mph13.4 kmh 29.94 in1013.9 mb - 0.00 in0.0 mm 0.00 in0.0 mm
01:50 AM 54.7°F12.6°C 37.9°F3.3°C 53% 6.0 mph SW9.7 kmh SW 9.8 mph15.8 kmh 29.94 in1013.9 mb - 0.00 in0.0 mm 0.00 in0.0 mm
01:40 AM 54.7°F12.6°C 36.9°F2.7°C 51% 3.6 mph W5.8 kmh W 4.5 mph7.2 kmh 29.95 in1014.2 mb - 0.00 in0.0 mm 0.00 in0.0 mm
01:30 AM 54.9°F12.7°C 36.6°F2.6°C 50% 5.2 mph W8.4 kmh W 8.3 mph13.4 kmh 29.95 in1014.2 mb - 0.00 in0.0 mm 0.00 in0.0 mm
01:20 AM 54.9°F12.7°C 36.6°F2.6°C 50% 3.1 mph SW5.0 kmh SW 4.5 mph7.2 kmh 29.96 in1014.6 mb - 0.00 in0.0 mm 0.00 in0.0 mm
01:10 AM 54.7°F12.6°C 36.4°F2.4°C 50% 2.0 mph W3.2 kmh W 3.1 mph5.0 kmh 29.96 in1014.6 mb - 0.00 in0.0 mm 0.00 in0.0 mm
01:00 AM 54.7°F12.6°C 35.9°F2.2°C 49% 1.6 mph 2.6 kmh 2.2 mph3.5 kmh 29.96 in1014.6 mb - 0.00 in0.0 mm 0.00 in0.0 mm
12:50 AM 54.7°F12.6°C 35.9°F2.2°C 49% 4.4 mph WNW7.1 kmh WNW 6.9 mph11.1 kmh 29.96 in1014.6 mb - 0.00 in0.0 mm 0.00 in0.0 mm
12:40 AM 54.6°F12.6°C 35.3°F1.8°C 48% 6.8 mph W10.9 kmh W 9.8 mph15.8 kmh 29.97 in1014.9 mb - 0.00 in0.0 mm 0.00 in0.0 mm
12:30 AM 54.5°F12.5°C 35.2°F1.8°C 48% 5.6 mph ENE9.0 kmh ENE 7.6 mph12.2 kmh 29.96 in1014.6 mb - 0.00 in0.0 mm 0.00 in0.0 mm
12:20 AM 54.3°F12.4°C 36.1°F2.3°C 50% 5.5 mph W8.9 kmh W 6.9 mph11.1 kmh 29.96 in1014.6 mb - 0.00 in0.0 mm 0.00 in0.0 mm
12:10 AM 54.5°F12.5°C 34.1°F1.2°C 46% 8.4 mph NW13.5 kmh NW 18.4 mph29.6 kmh 29.96 in1014.6 mb - 0.00 in0.0 mm 0.00 in0.0 mm
12:00 AM 54.5°F12.5°C 33.0°F0.6°C 44% 7.6 mph NW12.2 kmh NW 9.8 mph15.8 kmh 29.96 in1014.6 mb - 0.00 in0.0 mm 0.00 in0.0 mm